sensor_id;sensor_type;location;lat;lon;timestamp;pressure;altitude;pressure_sealevel;temperature;humidity
8334;BME280;4204;43.004;23.052;2023-08-12T00:01:36;94413.59;;;16.10;100.00
8334;BME280;4204;43.004;23.052;2023-08-12T00:04:10;94407.75;;;16.08;100.00
8334;BME280;4204;43.004;23.052;2023-08-12T00:06:43;94413.44;;;15.95;100.00
8334;BME280;4204;43.004;23.052;2023-08-12T00:09:16;94417.75;;;15.87;100.00
8334;BME280;4204;43.004;23.052;2023-08-12T00:11:50;94422.06;;;16.00;100.00
8334;BME280;4204;43.004;23.052;2023-08-12T00:14:22;94423.31;;;16.15;100.00
8334;BME280;4204;43.004;23.052;2023-08-12T00:16:54;94418.06;;;16.06;100.00
8334;BME280;4204;43.004;23.052;2023-08-12T00:19:26;94412.56;;;16.03;100.00
8334;BME280;4204;43.004;23.052;2023-08-12T00:21:58;94410.69;;;16.15;100.00
8334;BME280;4204;43.004;23.052;2023-08-12T00:24:29;94413.13;;;16.08;100.00
8334;BME280;4204;43.004;23.052;2023-08-12T00:26:57;94406.53;;;16.06;100.00
8334;BME280;4204;43.004;23.052;2023-08-12T00:29:26;94416.38;;;16.14;100.00
8334;BME280;4204;43.004;23.052;2023-08-12T00:31:57;94408.00;;;16.15;100.00
8334;BME280;4204;43.004;23.052;2023-08-12T00:34:30;94405.09;;;16.08;100.00
8334;BME280;4204;43.004;23.052;2023-08-12T00:37:02;94408.84;;;15.95;100.00
8334;BME280;4204;43.004;23.052;2023-08-12T00:39:32;94412.81;;;15.77;100.00
8334;BME280;4204;43.004;23.052;2023-08-12T00:42:02;94406.84;;;15.60;100.00
8334;BME280;4204;43.004;23.052;2023-08-12T00:44:43;94397.66;;;15.40;100.00
8334;BME280;4204;43.004;23.052;2023-08-12T00:47:11;94398.44;;;15.40;100.00
8334;BME280;4204;43.004;23.052;2023-08-12T00:49:40;94396.84;;;15.48;100.00
8334;BME280;4204;43.004;23.052;2023-08-12T00:52:22;94400.22;;;15.57;100.00
8334;BME280;4204;43.004;23.052;2023-08-12T00:54:51;94401.09;;;15.49;100.00
8334;BME280;4204;43.004;23.052;2023-08-12T00:57:25;94398.88;;;15.51;100.00
8334;BME280;4204;43.004;23.052;2023-08-12T00:59:55;94400.19;;;15.45;100.00
8334;BME280;4204;43.004;23.052;2023-08-12T01:02:24;94389.56;;;15.49;100.00
8334;BME280;4204;43.004;23.052;2023-08-12T01:05:00;94390.81;;;15.51;100.00
8334;BME280;4204;43.004;23.052;2023-08-12T01:07:30;94396.56;;;15.41;100.00
8334;BME280;4204;43.004;23.052;2023-08-12T01:10:09;94388.72;;;15.36;100.00
8334;BME280;4204;43.004;23.052;2023-08-12T01:12:45;94385.69;;;15.37;100.00
8334;BME280;4204;43.004;23.052;2023-08-12T01:15:18;94389.28;;;15.41;100.00
8334;BME280;4204;43.004;23.052;2023-08-12T01:17:50;94391.81;;;15.47;100.00
8334;BME280;4204;43.004;23.052;2023-08-12T01:20:23;94393.97;;;15.53;100.00
8334;BME280;4204;43.004;23.052;2023-08-12T01:23:10;94394.88;;;15.57;100.00
8334;BME280;4204;43.004;23.052;2023-08-12T01:25:45;94394.06;;;15.57;100.00
8334;BME280;4204;43.004;23.052;2023-08-12T01:28:22;94389.97;;;15.59;100.00
8334;BME280;4204;43.004;23.052;2023-08-12T01:31:08;94394.97;;;15.61;100.00
8334;BME280;4204;43.004;23.052;2023-08-12T01:33:46;94393.22;;;15.65;100.00
8334;BME280;4204;43.004;23.052;2023-08-12T01:36:24;94394.78;;;15.66;100.00
8334;BME280;4204;43.004;23.052;2023-08-12T01:38:56;94398.34;;;15.58;100.00
8334;BME280;4204;43.004;23.052;2023-08-12T01:41:29;94390.25;;;15.46;100.00
8334;BME280;4204;43.004;23.052;2023-08-12T01:43:57;94391.69;;;15.43;100.00
8334;BME280;4204;43.004;23.052;2023-08-12T01:46:32;94375.41;;;15.39;100.00
8334;BME280;4204;43.004;23.052;2023-08-12T01:49:05;94388.78;;;15.48;100.00
8334;BME280;4204;43.004;23.052;2023-08-12T01:51:38;94388.81;;;15.39;100.00
8334;BME280;4204;43.004;23.052;2023-08-12T01:54:14;94384.09;;;15.45;100.00
8334;BME280;4204;43.004;23.052;2023-08-12T01:56:44;94395.63;;;15.46;100.00
8334;BME280;4204;43.004;23.052;2023-08-12T01:59:16;94398.94;;;15.43;100.00
8334;BME280;4204;43.004;23.052;2023-08-12T02:01:44;94393.88;;;15.20;100.00
8334;BME280;4204;43.004;23.052;2023-08-12T02:04:15;94395.19;;;15.14;100.00
8334;BME280;4204;43.004;23.052;2023-08-12T02:06:44;94391.78;;;15.05;100.00
8334;BME280;4204;43.004;23.052;2023-08-12T02:09:18;94395.91;;;15.03;100.00
8334;BME280;4204;43.004;23.052;2023-08-12T02:11:54;94390.41;;;14.99;100.00
8334;BME280;4204;43.004;23.052;2023-08-12T02:14:28;94385.97;;;14.83;100.00
8334;BME280;4204;43.004;23.052;2023-08-12T02:16:58;94385.03;;;14.79;100.00
8334;BME280;4204;43.004;23.052;2023-08-12T02:19:26;94393.44;;;14.69;100.00
8334;BME280;4204;43.004;23.052;2023-08-12T02:22:10;94380.91;;;14.61;100.00
8334;BME280;4204;43.004;23.052;2023-08-12T02:24:48;94375.59;;;14.52;100.00
8334;BME280;4204;43.004;23.052;2023-08-12T02:27:23;94375.63;;;14.43;100.00
8334;BME280;4204;43.004;23.052;2023-08-12T02:30:01;94382.59;;;14.36;100.00
8334;BME280;4204;43.004;23.052;2023-08-12T02:32:35;94377.19;;;14.44;100.00
8334;BME280;4204;43.004;23.052;2023-08-12T02:35:09;94385.97;;;14.53;100.00
8334;BME280;4204;43.004;23.052;2023-08-12T02:37:36;94386.56;;;14.59;100.00
8334;BME280;4204;43.004;23.052;2023-08-12T02:40:07;94382.88;;;14.72;100.00
8334;BME280;4204;43.004;23.052;2023-08-12T02:42:39;94387.44;;;14.72;100.00
8334;BME280;4204;43.004;23.052;2023-08-12T02:45:11;94384.69;;;14.80;100.00
8334;BME280;4204;43.004;23.052;2023-08-12T02:47:45;94388.97;;;14.81;100.00
8334;BME280;4204;43.004;23.052;2023-08-12T02:50:13;94382.34;;;14.79;100.00
8334;BME280;4204;43.004;23.052;2023-08-12T02:52:46;94389.28;;;14.80;100.00
8334;BME280;4204;43.004;23.052;2023-08-12T02:55:19;94389.31;;;14.71;100.00
8334;BME280;4204;43.004;23.052;2023-08-12T02:57:55;94388.84;;;14.69;100.00
8334;BME280;4204;43.004;23.052;2023-08-12T03:00:29;94390.31;;;14.67;100.00
8334;BME280;4204;43.004;23.052;2023-08-12T03:03:03;94387.13;;;14.73;100.00
8334;BME280;4204;43.004;23.052;2023-08-12T03:05:35;94396.38;;;14.76;100.00
8334;BME280;4204;43.004;23.052;2023-08-12T03:08:05;94396.72;;;14.74;100.00
8334;BME280;4204;43.004;23.052;2023-08-12T03:10:39;94399.34;;;14.83;100.00
8334;BME280;4204;43.004;23.052;2023-08-12T03:13:09;94394.84;;;14.75;100.00
8334;BME280;4204;43.004;23.052;2023-08-12T03:15:38;94399.72;;;14.73;100.00
8334;BME280;4204;43.004;23.052;2023-08-12T03:18:13;94397.09;;;14.64;100.00
8334;BME280;4204;43.004;23.052;2023-08-12T03:20:49;94401.31;;;14.65;100.00
8334;BME280;4204;43.004;23.052;2023-08-12T03:23:24;94402.94;;;14.57;100.00
8334;BME280;4204;43.004;23.052;2023-08-12T03:26:01;94404.06;;;14.56;100.00
8334;BME280;4204;43.004;23.052;2023-08-12T03:28:39;94399.06;;;14.46;100.00
8334;BME280;4204;43.004;23.052;2023-08-12T03:31:10;94400.34;;;14.40;100.00
8334;BME280;4204;43.004;23.052;2023-08-12T03:33:37;94405.69;;;14.40;100.00
8334;BME280;4204;43.004;23.052;2023-08-12T03:36:13;94400.50;;;14.44;100.00
8334;BME280;4204;43.004;23.052;2023-08-12T03:38:45;94406.78;;;14.48;100.00
8334;BME280;4204;43.004;23.052;2023-08-12T03:41:24;94401.09;;;14.49;100.00
8334;BME280;4204;43.004;23.052;2023-08-12T03:44:01;94400.03;;;14.42;100.00
8334;BME280;4204;43.004;23.052;2023-08-12T03:46:33;94402.84;;;14.45;100.00
8334;BME280;4204;43.004;23.052;2023-08-12T03:49:02;94397.88;;;14.35;100.00
8334;BME280;4204;43.004;23.052;2023-08-12T03:51:36;94411.53;;;14.34;100.00
8334;BME280;4204;43.004;23.052;2023-08-12T03:54:04;94407.50;;;14.19;100.00
8334;BME280;4204;43.004;23.052;2023-08-12T03:56:33;94409.22;;;14.15;100.00
8334;BME280;4204;43.004;23.052;2023-08-12T03:59:06;94408.59;;;14.18;100.00
8334;BME280;4204;43.004;23.052;2023-08-12T04:01:38;94413.94;;;14.18;100.00
8334;BME280;4204;43.004;23.052;2023-08-12T04:04:06;94419.94;;;14.15;100.00
8334;BME280;4204;43.004;23.052;2023-08-12T04:06:34;94414.88;;;14.22;100.00
8334;BME280;4204;43.004;23.052;2023-08-12T04:09:09;94418.47;;;14.26;100.00
8334;BME280;4204;43.004;23.052;2023-08-12T04:11:45;94412.03;;;14.36;100.00
8334;BME280;4204;43.004;23.052;2023-08-12T04:14:18;94412.97;;;14.40;100.00
8334;BME280;4204;43.004;23.052;2023-08-12T04:16:46;94418.16;;;14.36;100.00
8334;BME280;4204;43.004;23.052;2023-08-12T04:19:19;94419.72;;;14.46;100.00
8334;BME280;4204;43.004;23.052;2023-08-12T04:21:47;94424.91;;;14.42;100.00
8334;BME280;4204;43.004;23.052;2023-08-12T04:24:17;94427.56;;;14.42;100.00
8334;BME280;4204;43.004;23.052;2023-08-12T04:26:52;94424.25;;;14.45;100.00
8334;BME280;4204;43.004;23.052;2023-08-12T04:29:24;94431.38;;;14.41;100.00
8334;BME280;4204;43.004;23.052;2023-08-12T04:31:51;94429.28;;;14.47;100.00
8334;BME280;4204;43.004;23.052;2023-08-12T04:34:26;94433.06;;;14.54;100.00
8334;BME280;4204;43.004;23.052;2023-08-12T04:37:05;94435.94;;;14.41;100.00
8334;BME280;4204;43.004;23.052;2023-08-12T04:39:42;94430.59;;;14.41;100.00
8334;BME280;4204;43.004;23.052;2023-08-12T04:42:15;94430.09;;;14.47;100.00
8334;BME280;4204;43.004;23.052;2023-08-12T04:44:49;94427.41;;;14.47;100.00
8334;BME280;4204;43.004;23.052;2023-08-12T04:47:25;94443.13;;;14.49;100.00
8334;BME280;4204;43.004;23.052;2023-08-12T04:49:57;94436.69;;;14.50;100.00
8334;BME280;4204;43.004;23.052;2023-08-12T04:52:32;94440.59;;;14.52;100.00
8334;BME280;4204;43.004;23.052;2023-08-12T04:55:03;94437.28;;;14.55;100.00
8334;BME280;4204;43.004;23.052;2023-08-12T04:57:39;94433.84;;;14.46;100.00
8334;BME280;4204;43.004;23.052;2023-08-12T05:00:14;94432.09;;;14.50;100.00
8334;BME280;4204;43.004;23.052;2023-08-12T05:02:43;94434.78;;;14.50;100.00
8334;BME280;4204;43.004;23.052;2023-08-12T05:05:13;94415.75;;;14.52;100.00
8334;BME280;4204;43.004;23.052;2023-08-12T05:07:48;94410.09;;;14.45;100.00
8334;BME280;4204;43.004;23.052;2023-08-12T05:10:19;94421.06;;;14.61;100.00
8334;BME280;4204;43.004;23.052;2023-08-12T05:12:57;94422.88;;;14.77;100.00
8334;BME280;4204;43.004;23.052;2023-08-12T05:15:26;94418.72;;;14.80;100.00
8334;BME280;4204;43.004;23.052;2023-08-12T05:17:56;94425.94;;;14.88;100.00
8334;BME280;4204;43.004;23.052;2023-08-12T05:20:25;94421.66;;;14.95;100.00
8334;BME280;4204;43.004;23.052;2023-08-12T05:22:55;94423.94;;;15.05;100.00
8334;BME280;4204;43.004;23.052;2023-08-12T05:25:30;94416.63;;;15.14;100.00
8334;BME280;4204;43.004;23.052;2023-08-12T05:28:02;94417.47;;;15.27;100.00
8334;BME280;4204;43.004;23.052;2023-08-12T05:30:30;94424.53;;;15.31;100.00
8334;BME280;4204;43.004;23.052;2023-08-12T05:32:58;94416.88;;;15.42;100.00
8334;BME280;4204;43.004;23.052;2023-08-12T05:35:26;94424.38;;;15.57;100.00
8334;BME280;4204;43.004;23.052;2023-08-12T05:38:04;94417.84;;;15.79;100.00
8334;BME280;4204;43.004;23.052;2023-08-12T05:40:32;94417.97;;;15.82;100.00
8334;BME280;4204;43.004;23.052;2023-08-12T05:43:07;94426.31;;;16.01;100.00
8334;BME280;4204;43.004;23.052;2023-08-12T05:45:39;94411.34;;;16.12;100.00
8334;BME280;4204;43.004;23.052;2023-08-12T05:48:07;94410.03;;;16.31;100.00
8334;BME280;4204;43.004;23.052;2023-08-12T05:50:35;94409.38;;;16.34;100.00
8334;BME280;4204;43.004;23.052;2023-08-12T05:53:08;94416.78;;;16.49;100.00
8334;BME280;4204;43.004;23.052;2023-08-12T05:55:36;94419.50;;;16.61;100.00
8334;BME280;4204;43.004;23.052;2023-08-12T05:58:07;94418.38;;;16.74;100.00
8334;BME280;4204;43.004;23.052;2023-08-12T06:00:35;94419.94;;;16.75;100.00
8334;BME280;4204;43.004;23.052;2023-08-12T06:03:12;94423.41;;;16.87;100.00
8334;BME280;4204;43.004;23.052;2023-08-12T06:05:40;94420.38;;;16.89;100.00
8334;BME280;4204;43.004;23.052;2023-08-12T06:08:11;94411.41;;;16.97;100.00
8334;BME280;4204;43.004;23.052;2023-08-12T06:10:41;94423.81;;;17.26;100.00
8334;BME280;4204;43.004;23.052;2023-08-12T06:13:12;94416.97;;;17.28;100.00
8334;BME280;4204;43.004;23.052;2023-08-12T06:15:44;94416.94;;;17.40;100.00
8334;BME280;4204;43.004;23.052;2023-08-12T06:18:22;94426.44;;;17.62;100.00
8334;BME280;4204;43.004;23.052;2023-08-12T06:20:55;94416.47;;;17.62;100.00
8334;BME280;4204;43.004;23.052;2023-08-12T06:23:29;94424.06;;;17.72;100.00
8334;BME280;4204;43.004;23.052;2023-08-12T06:26:00;94423.66;;;17.86;100.00
8334;BME280;4204;43.004;23.052;2023-08-12T06:28:33;94425.00;;;18.08;100.00
8334;BME280;4204;43.004;23.052;2023-08-12T06:31:09;94424.59;;;18.21;100.00
8334;BME280;4204;43.004;23.052;2023-08-12T06:33:37;94427.22;;;18.33;100.00
8334;BME280;4204;43.004;23.052;2023-08-12T06:36:09;94423.25;;;18.43;100.00
8334;BME280;4204;43.004;23.052;2023-08-12T06:38:37;94424.34;;;18.42;100.00
8334;BME280;4204;43.004;23.052;2023-08-12T06:41:07;94422.56;;;18.46;100.00
8334;BME280;4204;43.004;23.052;2023-08-12T06:43:37;94418.91;;;18.54;100.00
8334;BME280;4204;43.004;23.052;2023-08-12T06:46:07;94417.09;;;18.58;100.00
8334;BME280;4204;43.004;23.052;2023-08-12T06:48:41;94415.09;;;18.55;100.00
8334;BME280;4204;43.004;23.052;2023-08-12T06:51:11;94419.78;;;18.58;100.00
8334;BME280;4204;43.004;23.052;2023-08-12T06:53:42;94405.09;;;18.71;100.00
8334;BME280;4204;43.004;23.052;2023-08-12T06:56:25;94406.47;;;18.96;100.00
8334;BME280;4204;43.004;23.052;2023-08-12T06:58:55;94406.03;;;18.94;100.00
8334;BME280;4204;43.004;23.052;2023-08-12T07:01:26;94411.84;;;18.96;100.00
8334;BME280;4204;43.004;23.052;2023-08-12T07:03:56;94402.22;;;18.95;100.00
8334;BME280;4204;43.004;23.052;2023-08-12T07:06:26;94411.00;;;18.92;100.00
8334;BME280;4204;43.004;23.052;2023-08-12T07:09:02;94404.94;;;19.14;100.00
8334;BME280;4204;43.004;23.052;2023-08-12T07:11:32;94406.22;;;19.20;100.00
8334;BME280;4204;43.004;23.052;2023-08-12T07:14:06;94410.63;;;19.44;100.00
8334;BME280;4204;43.004;23.052;2023-08-12T07:16:42;94409.56;;;19.68;100.00
8334;BME280;4204;43.004;23.052;2023-08-12T07:19:15;94397.44;;;19.77;100.00
8334;BME280;4204;43.004;23.052;2023-08-12T07:21:43;94402.63;;;19.86;100.00
8334;BME280;4204;43.004;23.052;2023-08-12T07:24:21;94399.88;;;20.05;100.00
8334;BME280;4204;43.004;23.052;2023-08-12T07:26:53;94407.06;;;20.16;100.00
8334;BME280;4204;43.004;23.052;2023-08-12T07:29:34;94399.75;;;20.17;100.00
8334;BME280;4204;43.004;23.052;2023-08-12T07:32:11;94407.00;;;20.13;100.00
8334;BME280;4204;43.004;23.052;2023-08-12T07:34:39;94404.16;;;20.25;100.00
8334;BME280;4204;43.004;23.052;2023-08-12T07:37:07;94409.03;;;20.39;100.00
8334;BME280;4204;43.004;23.052;2023-08-12T07:39:39;94402.53;;;20.43;100.00
8334;BME280;4204;43.004;23.052;2023-08-12T07:42:07;94404.69;;;20.57;100.00
8334;BME280;4204;43.004;23.052;2023-08-12T07:44:37;94409.56;;;20.70;100.00
8334;BME280;4204;43.004;23.052;2023-08-12T07:47:05;94396.84;;;20.71;100.00
8334;BME280;4204;43.004;23.052;2023-08-12T07:49:36;94408.66;;;20.85;100.00
8334;BME280;4204;43.004;23.052;2023-08-12T07:52:05;94405.28;;;20.92;100.00
8334;BME280;4204;43.004;23.052;2023-08-12T07:54:39;94410.53;;;21.04;100.00
8334;BME280;4204;43.004;23.052;2023-08-12T07:57:13;94402.47;;;21.08;100.00
8334;BME280;4204;43.004;23.052;2023-08-12T07:59:45;94398.03;;;21.22;100.00
8334;BME280;4204;43.004;23.052;2023-08-12T08:02:14;94397.94;;;21.15;100.00
8334;BME280;4204;43.004;23.052;2023-08-12T08:04:49;94397.81;;;21.34;100.00
8334;BME280;4204;43.004;23.052;2023-08-12T08:07:24;94398.75;;;21.45;100.00
8334;BME280;4204;43.004;23.052;2023-08-12T08:09:54;94396.13;;;21.52;100.00
8334;BME280;4204;43.004;23.052;2023-08-12T08:12:24;94396.19;;;21.56;100.00
8334;BME280;4204;43.004;23.052;2023-08-12T08:14:56;94386.72;;;21.43;100.00
8334;BME280;4204;43.004;23.052;2023-08-12T08:17:24;94391.22;;;21.61;100.00
8334;BME280;4204;43.004;23.052;2023-08-12T08:19:54;94393.28;;;21.71;100.00
8334;BME280;4204;43.004;23.052;2023-08-12T08:22:22;94387.47;;;21.73;100.00
8334;BME280;4204;43.004;23.052;2023-08-12T08:24:50;94394.13;;;21.79;100.00
8334;BME280;4204;43.004;23.052;2023-08-12T08:27:22;94392.00;;;21.92;100.00
8334;BME280;4204;43.004;23.052;2023-08-12T08:29:50;94386.13;;;21.86;100.00
8334;BME280;4204;43.004;23.052;2023-08-12T08:32:25;94386.78;;;22.09;100.00
8334;BME280;4204;43.004;23.052;2023-08-12T08:34:55;94382.19;;;22.13;100.00
8334;BME280;4204;43.004;23.052;2023-08-12T08:37:24;94374.84;;;22.14;100.00
8334;BME280;4204;43.004;23.052;2023-08-12T08:39:52;94377.31;;;22.29;100.00
8334;BME280;4204;43.004;23.052;2023-08-12T08:42:29;94373.38;;;22.23;100.00
8334;BME280;4204;43.004;23.052;2023-08-12T08:45:01;94364.97;;;22.35;100.00
8334;BME280;4204;43.004;23.052;2023-08-12T08:47:31;94361.63;;;22.49;100.00
8334;BME280;4204;43.004;23.052;2023-08-12T08:50:00;94367.53;;;22.62;100.00
8334;BME280;4204;43.004;23.052;2023-08-12T08:52:28;94357.19;;;22.74;100.00
8334;BME280;4204;43.004;23.052;2023-08-12T08:55:00;94359.63;;;22.86;100.00
8334;BME280;4204;43.004;23.052;2023-08-12T08:57:28;94359.63;;;22.86;100.00
8334;BME280;4204;43.004;23.052;2023-08-12T08:59:59;94356.56;;;22.95;100.00
8334;BME280;4204;43.004;23.052;2023-08-12T09:02:31;94357.03;;;23.04;100.00
8334;BME280;4204;43.004;23.052;2023-08-12T09:05:08;94359.81;;;23.14;100.00
8334;BME280;4204;43.004;23.052;2023-08-12T09:07:47;94352.06;;;23.16;100.00
8334;BME280;4204;43.004;23.052;2023-08-12T09:10:28;94347.84;;;23.26;100.00
8334;BME280;4204;43.004;23.052;2023-08-12T09:12:57;94353.75;;;23.35;100.00
8334;BME280;4204;43.004;23.052;2023-08-12T09:15:30;94351.09;;;23.46;100.00
8334;BME280;4204;43.004;23.052;2023-08-12T09:18:04;94338.69;;;23.48;100.00
8334;BME280;4204;43.004;23.052;2023-08-12T09:20:35;94348.00;;;23.51;100.00
8334;BME280;4204;43.004;23.052;2023-08-12T09:23:05;94347.66;;;23.59;100.00
8334;BME280;4204;43.004;23.052;2023-08-12T09:25:35;94342.25;;;23.63;100.00
8334;BME280;4204;43.004;23.052;2023-08-12T09:28:08;94343.44;;;23.69;100.00
8334;BME280;4204;43.004;23.052;2023-08-12T09:30:39;94335.28;;;23.69;100.00
8334;BME280;4204;43.004;23.052;2023-08-12T09:33:14;94330.72;;;23.97;100.00
8334;BME280;4204;43.004;23.052;2023-08-12T09:35:46;94340.47;;;24.05;100.00
8334;BME280;4204;43.004;23.052;2023-08-12T09:38:26;94329.25;;;24.32;100.00
8334;BME280;4204;43.004;23.052;2023-08-12T09:40:57;94334.66;;;24.14;100.00
8334;BME280;4204;43.004;23.052;2023-08-12T09:43:27;94326.16;;;24.23;100.00
8334;BME280;4204;43.004;23.052;2023-08-12T09:46:00;94323.06;;;24.35;100.00
8334;BME280;4204;43.004;23.052;2023-08-12T09:48:36;94324.59;;;24.46;100.00
8334;BME280;4204;43.004;23.052;2023-08-12T09:51:08;94321.88;;;24.57;100.00
8334;BME280;4204;43.004;23.052;2023-08-12T09:53:42;94321.50;;;24.65;100.00
8334;BME280;4204;43.004;23.052;2023-08-12T09:56:23;94314.09;;;24.73;100.00
8334;BME280;4204;43.004;23.052;2023-08-12T09:59:04;94314.91;;;24.70;100.00
8334;BME280;4204;43.004;23.052;2023-08-12T10:01:42;94314.94;;;24.80;100.00
8334;BME280;4204;43.004;23.052;2023-08-12T10:04:22;94306.00;;;24.76;100.00
8334;BME280;4204;43.004;23.052;2023-08-12T10:06:54;94303.25;;;24.80;100.00
8334;BME280;4204;43.004;23.052;2023-08-12T10:09:29;94300.13;;;24.96;100.00
8334;BME280;4204;43.004;23.052;2023-08-12T10:12:02;94297.78;;;25.01;100.00
8334;BME280;4204;43.004;23.052;2023-08-12T10:14:34;94293.84;;;25.16;100.00
8334;BME280;4204;43.004;23.052;2023-08-12T10:17:06;94299.25;;;25.27;100.00
8334;BME280;4204;43.004;23.052;2023-08-12T10:19:43;94302.75;;;25.45;100.00
8334;BME280;4204;43.004;23.052;2023-08-12T10:22:16;94292.97;;;25.61;100.00
8334;BME280;4204;43.004;23.052;2023-08-12T10:24:50;94296.44;;;25.62;100.00
8334;BME280;4204;43.004;23.052;2023-08-12T10:27:25;94299.28;;;25.41;100.00
8334;BME280;4204;43.004;23.052;2023-08-12T10:30:14;94295.72;;;25.54;100.00
8334;BME280;4204;43.004;23.052;2023-08-12T10:32:43;94288.69;;;25.60;100.00
8334;BME280;4204;43.004;23.052;2023-08-12T10:35:17;94288.66;;;25.67;100.00
8334;BME280;4204;43.004;23.052;2023-08-12T10:37:48;94285.16;;;25.63;100.00
8334;BME280;4204;43.004;23.052;2023-08-12T10:40:26;94292.19;;;25.61;100.00
8334;BME280;4204;43.004;23.052;2023-08-12T10:42:58;94282.47;;;25.56;100.00
8334;BME280;4204;43.004;23.052;2023-08-12T10:45:41;94289.47;;;25.61;100.00
8334;BME280;4204;43.004;23.052;2023-08-12T10:48:17;94287.16;;;25.52;100.00
8334;BME280;4204;43.004;23.052;2023-08-12T10:50:49;94278.59;;;25.40;100.00
8334;BME280;4204;43.004;23.052;2023-08-12T10:53:24;94280.56;;;25.39;100.00
8334;BME280;4204;43.004;23.052;2023-08-12T10:55:57;94269.66;;;25.39;100.00
8334;BME280;4204;43.004;23.052;2023-08-12T10:58:33;94263.47;;;25.42;100.00
8334;BME280;4204;43.004;23.052;2023-08-12T11:01:01;94259.88;;;25.59;100.00
8334;BME280;4204;43.004;23.052;2023-08-12T11:03:32;94257.16;;;25.56;100.00
8334;BME280;4204;43.004;23.052;2023-08-12T11:06:04;94265.66;;;25.68;100.00
8334;BME280;4204;43.004;23.052;2023-08-12T11:08:35;94266.31;;;25.94;100.00
8334;BME280;4204;43.004;23.052;2023-08-12T11:11:20;94268.97;;;26.04;100.00
8334;BME280;4204;43.004;23.052;2023-08-12T11:13:53;94260.31;;;26.20;100.00
8334;BME280;4204;43.004;23.052;2023-08-12T11:16:36;94251.19;;;26.40;100.00
8334;BME280;4204;43.004;23.052;2023-08-12T11:19:09;94262.34;;;26.60;100.00
8334;BME280;4204;43.004;23.052;2023-08-12T11:21:40;94255.69;;;26.61;100.00
8334;BME280;4204;43.004;23.052;2023-08-12T11:24:11;94253.03;;;26.54;100.00
8334;BME280;4204;43.004;23.052;2023-08-12T11:26:42;94242.19;;;26.47;100.00
8334;BME280;4204;43.004;23.052;2023-08-12T11:29:15;94241.25;;;26.64;100.00
8334;BME280;4204;43.004;23.052;2023-08-12T11:31:46;94244.25;;;26.80;100.00
8334;BME280;4204;43.004;23.052;2023-08-12T11:34:15;94243.50;;;26.76;100.00
8334;BME280;4204;43.004;23.052;2023-08-12T11:36:53;94246.50;;;26.89;100.00
8334;BME280;4204;43.004;23.052;2023-08-12T11:39:23;94237.38;;;26.62;100.00
8334;BME280;4204;43.004;23.052;2023-08-12T11:41:53;94231.13;;;26.65;100.00
8334;BME280;4204;43.004;23.052;2023-08-12T11:44:22;94221.88;;;26.52;100.00
8334;BME280;4204;43.004;23.052;2023-08-12T11:46:52;94226.50;;;26.58;100.00
8334;BME280;4204;43.004;23.052;2023-08-12T11:49:20;94228.03;;;26.59;100.00
8334;BME280;4204;43.004;23.052;2023-08-12T11:51:48;94231.13;;;26.61;100.00
8334;BME280;4204;43.004;23.052;2023-08-12T11:54:21;94229.84;;;26.76;100.00
8334;BME280;4204;43.004;23.052;2023-08-12T11:56:49;94233.88;;;26.61;100.00
8334;BME280;4204;43.004;23.052;2023-08-12T11:59:21;94219.69;;;26.36;100.00
8334;BME280;4204;43.004;23.052;2023-08-12T12:01:49;94232.59;;;26.28;100.00
8334;BME280;4204;43.004;23.052;2023-08-12T12:04:27;94231.25;;;26.47;100.00
8334;BME280;4204;43.004;23.052;2023-08-12T12:07:00;94217.41;;;26.27;100.00
8334;BME280;4204;43.004;23.052;2023-08-12T12:09:36;94222.78;;;26.38;100.00
8334;BME280;4204;43.004;23.052;2023-08-12T12:12:14;94238.09;;;26.25;100.00
8334;BME280;4204;43.004;23.052;2023-08-12T12:14:48;94225.22;;;26.22;100.00
8334;BME280;4204;43.004;23.052;2023-08-12T12:17:17;94227.22;;;26.21;100.00
8334;BME280;4204;43.004;23.052;2023-08-12T12:19:53;94232.66;;;26.21;100.00
8334;BME280;4204;43.004;23.052;2023-08-12T12:22:29;94215.19;;;26.15;100.00
8334;BME280;4204;43.004;23.052;2023-08-12T12:25:10;94219.91;;;26.04;100.00
8334;BME280;4204;43.004;23.052;2023-08-12T12:27:43;94224.25;;;25.91;100.00
8334;BME280;4204;43.004;23.052;2023-08-12T12:30:16;94227.03;;;25.88;100.00
8334;BME280;4204;43.004;23.052;2023-08-12T12:32:53;94230.22;;;25.76;100.00
8334;BME280;4204;43.004;23.052;2023-08-12T12:35:25;94224.84;;;25.61;100.00
8334;BME280;4204;43.004;23.052;2023-08-12T12:37:57;94227.94;;;25.63;100.00
8334;BME280;4204;43.004;23.052;2023-08-12T12:40:30;94222.47;;;25.67;100.00
8334;BME280;4204;43.004;23.052;2023-08-12T12:42:59;94220.19;;;25.58;100.00
8334;BME280;4204;43.004;23.052;2023-08-12T12:45:33;94224.00;;;25.68;100.00
8334;BME280;4204;43.004;23.052;2023-08-12T12:48:05;94215.94;;;25.50;100.00
8334;BME280;4204;43.004;23.052;2023-08-12T12:50:37;94217.88;;;25.50;100.00
8334;BME280;4204;43.004;23.052;2023-08-12T12:53:16;94217.50;;;25.55;100.00
8334;BME280;4204;43.004;23.052;2023-08-12T12:55:47;94215.13;;;25.60;100.00
8334;BME280;4204;43.004;23.052;2023-08-12T12:58:21;94212.72;;;25.66;100.00
8334;BME280;4204;43.004;23.052;2023-08-12T13:00:53;94206.53;;;25.65;100.00
8334;BME280;4204;43.004;23.052;2023-08-12T13:03:25;94214.38;;;25.49;100.00
8334;BME280;4204;43.004;23.052;2023-08-12T13:05:56;94210.03;;;25.62;100.00
8334;BME280;4204;43.004;23.052;2023-08-12T13:08:24;94210.06;;;25.55;100.00
8334;BME280;4204;43.004;23.052;2023-08-12T13:10:57;94204.56;;;25.70;100.00
8334;BME280;4204;43.004;23.052;2023-08-12T13:13:25;94208.50;;;25.61;100.00
8334;BME280;4204;43.004;23.052;2023-08-12T13:15:54;94206.09;;;25.71;100.00
8334;BME280;4204;43.004;23.052;2023-08-12T13:18:22;94213.91;;;25.65;100.00
8334;BME280;4204;43.004;23.052;2023-08-12T13:20:50;94215.09;;;25.67;100.00
8334;BME280;4204;43.004;23.052;2023-08-12T13:23:28;94211.59;;;25.60;100.00
8334;BME280;4204;43.004;23.052;2023-08-12T13:26:00;94206.53;;;25.65;100.00
8334;BME280;4204;43.004;23.052;2023-08-12T13:28:29;94201.84;;;25.66;100.00